sensor_id;sensor_type;location;lat;lon;timestamp;pressure;altitude;pressure_sealevel;temperature;humidity
24230;BME280;12362;50.004;8.006;2023-03-03T00:01:13;100997.00;;;-0.13;100.00
24230;BME280;12362;50.004;8.006;2023-03-03T00:03:39;100993.66;;;-0.02;100.00
24230;BME280;12362;50.004;8.006;2023-03-03T00:06:08;100992.75;;;-0.19;100.00
24230;BME280;12362;50.004;8.006;2023-03-03T00:08:35;100992.69;;;-0.31;100.00
24230;BME280;12362;50.004;8.006;2023-03-03T00:11:01;100991.03;;;-0.24;100.00
24230;BME280;12362;50.004;8.006;2023-03-03T00:13:30;100991.94;;;-0.12;100.00
24230;BME280;12362;50.004;8.006;2023-03-03T00:18:45;101001.22;;;-0.20;100.00
24230;BME280;12362;50.004;8.006;2023-03-03T00:21:24;100999.53;;;-0.21;100.00
24230;BME280;12362;50.004;8.006;2023-03-03T00:23:52;100997.88;;;-0.16;100.00
24230;BME280;12362;50.004;8.006;2023-03-03T00:26:28;101008.91;;;-0.17;100.00
24230;BME280;12362;50.004;8.006;2023-03-03T00:28:55;101008.88;;;-0.23;100.00
24230;BME280;12362;50.004;8.006;2023-03-03T00:31:39;101014.84;;;-0.22;100.00
24230;BME280;12362;50.004;8.006;2023-03-03T00:34:26;101012.25;;;-0.28;100.00
24230;BME280;12362;50.004;8.006;2023-03-03T00:36:56;101014.66;;;-0.60;100.00
24230;BME280;12362;50.004;8.006;2023-03-03T00:39:32;101018.09;;;-0.52;100.00
24230;BME280;12362;50.004;8.006;2023-03-03T00:41:59;101027.47;;;-0.45;100.00
24230;BME280;12362;50.004;8.006;2023-03-03T00:44:40;101025.78;;;-0.44;100.00
24230;BME280;12362;50.004;8.006;2023-03-03T00:50:15;101033.28;;;-0.70;100.00
24230;BME280;12362;50.004;8.006;2023-03-03T00:53:03;101041.00;;;-0.61;100.00
24230;BME280;12362;50.004;8.006;2023-03-03T00:55:30;101041.09;;;-0.43;100.00
24230;BME280;12362;50.004;8.006;2023-03-03T00:57:56;101032.66;;;-0.36;100.00
24230;BME280;12362;50.004;8.006;2023-03-03T01:00:27;101034.09;;;-0.78;100.00
24230;BME280;12362;50.004;8.006;2023-03-03T01:02:53;101039.97;;;-0.85;100.00
24230;BME280;12362;50.004;8.006;2023-03-03T01:05:20;101046.84;;;-0.71;100.00
24230;BME280;12362;50.004;8.006;2023-03-03T01:07:46;101035.03;;;-0.63;100.00
24230;BME280;12362;50.004;8.006;2023-03-03T01:10:12;101032.50;;;-0.60;100.00
24230;BME280;12362;50.004;8.006;2023-03-03T01:12:38;101031.56;;;-0.71;100.00
24230;BME280;12362;50.004;8.006;2023-03-03T01:15:06;101030.56;;;-0.93;100.00
24230;BME280;12362;50.004;8.006;2023-03-03T01:17:32;101034.91;;;-0.84;100.00
24230;BME280;12362;50.004;8.006;2023-03-03T01:19:59;101036.56;;;-0.83;100.00
24230;BME280;12362;50.004;8.006;2023-03-03T01:22:24;101034.00;;;-0.90;100.00
24230;BME280;12362;50.004;8.006;2023-03-03T01:24:50;101033.13;;;-0.91;100.00
24230;BME280;12362;50.004;8.006;2023-03-03T01:27:15;101025.47;;;-0.93;100.00
24230;BME280;12362;50.004;8.006;2023-03-03T01:29:41;101028.84;;;-0.94;100.00
24230;BME280;12362;50.004;8.006;2023-03-03T01:32:07;101032.28;;;-0.91;100.00
24230;BME280;12362;50.004;8.006;2023-03-03T01:34:33;101031.41;;;-0.96;100.00
24230;BME280;12362;50.004;8.006;2023-03-03T01:36:58;101034.72;;;-1.04;100.00
24230;BME280;12362;50.004;8.006;2023-03-03T01:39:26;101032.25;;;-0.93;100.00
24230;BME280;12362;50.004;8.006;2023-03-03T01:41:51;101029.78;;;-0.85;100.00
24230;BME280;12362;50.004;8.006;2023-03-03T01:44:17;101024.56;;;-1.03;100.00
24230;BME280;12362;50.004;8.006;2023-03-03T01:49:22;101024.47;;;-1.13;100.00
24230;BME280;12362;50.004;8.006;2023-03-03T01:51:54;101029.59;;;-1.10;100.00
24230;BME280;12362;50.004;8.006;2023-03-03T01:54:39;101034.66;;;-1.12;100.00
24230;BME280;12362;50.004;8.006;2023-03-03T01:57:11;101029.63;;;-1.07;100.00
24230;BME280;12362;50.004;8.006;2023-03-03T01:59:41;101033.91;;;-0.99;100.00
24230;BME280;12362;50.004;8.006;2023-03-03T02:02:10;101021.13;;;-1.08;100.00
24230;BME280;12362;50.004;8.006;2023-03-03T02:04:36;101018.47;;;-1.20;100.00
24230;BME280;12362;50.004;8.006;2023-03-03T02:07:05;101015.00;;;-1.29;100.00
24230;BME280;12362;50.004;8.006;2023-03-03T02:09:45;101020.13;;;-1.26;100.00
24230;BME280;12362;50.004;8.006;2023-03-03T02:12:18;101020.25;;;-1.10;100.00
24230;BME280;12362;50.004;8.006;2023-03-03T02:14:45;101026.13;;;-1.21;100.00
24230;BME280;12362;50.004;8.006;2023-03-03T02:17:10;101025.13;;;-1.34;100.00
24230;BME280;12362;50.004;8.006;2023-03-03T02:22:13;101026.03;;;-1.29;100.00
24230;BME280;12362;50.004;8.006;2023-03-03T02:24:47;101026.84;;;-1.33;100.00
24230;BME280;12362;50.004;8.006;2023-03-03T02:27:15;101022.59;;;-1.37;100.00
24230;BME280;12362;50.004;8.006;2023-03-03T02:29:42;101022.66;;;-1.28;100.00
24230;BME280;12362;50.004;8.006;2023-03-03T02:32:09;101018.38;;;-1.33;100.00
24230;BME280;12362;50.004;8.006;2023-03-03T02:34:49;101014.88;;;-1.44;100.00
24230;BME280;12362;50.004;8.006;2023-03-03T02:37:16;101024.25;;;-1.36;100.00
24230;BME280;12362;50.004;8.006;2023-03-03T02:39:42;101030.16;;;-1.43;100.00
24230;BME280;12362;50.004;8.006;2023-03-03T02:42:18;101025.75;;;-1.62;100.00
24230;BME280;12362;50.004;8.006;2023-03-03T02:44:50;101034.94;;;-1.74;100.00
24230;BME280;12362;50.004;8.006;2023-03-03T02:47:15;101027.47;;;-1.59;100.00
24230;BME280;12362;50.004;8.006;2023-03-03T02:49:41;101022.41;;;-1.55;100.00
24230;BME280;12362;50.004;8.006;2023-03-03T02:52:09;101024.94;;;-1.56;100.00
24230;BME280;12362;50.004;8.006;2023-03-03T02:54:38;101029.66;;;-1.89;100.00
24230;BME280;12362;50.004;8.006;2023-03-03T02:57:04;101023.66;;;-1.98;100.00
24230;BME280;12362;50.004;8.006;2023-03-03T02:59:30;101028.00;;;-1.90;100.00
24230;BME280;12362;50.004;8.006;2023-03-03T03:02:00;101034.09;;;-1.73;100.00
24230;BME280;12362;50.004;8.006;2023-03-03T03:04:27;101032.53;;;-1.61;100.00
24230;BME280;12362;50.004;8.006;2023-03-03T03:06:54;101031.59;;;-1.70;100.00
24230;BME280;12362;50.004;8.006;2023-03-03T03:09:22;101028.25;;;-1.65;100.00
24230;BME280;12362;50.004;8.006;2023-03-03T03:11:50;101025.63;;;-1.71;100.00
24230;BME280;12362;50.004;8.006;2023-03-03T03:14:19;101031.53;;;-1.73;100.00
24230;BME280;12362;50.004;8.006;2023-03-03T03:16:45;101028.88;;;-1.86;100.00
24230;BME280;12362;50.004;8.006;2023-03-03T03:19:11;101033.97;;;-1.83;100.00
24230;BME280;12362;50.004;8.006;2023-03-03T03:21:37;101040.81;;;-1.81;100.00
24230;BME280;12362;50.004;8.006;2023-03-03T03:24:08;101030.59;;;-1.83;100.00
24230;BME280;12362;50.004;8.006;2023-03-03T03:26:36;101033.97;;;-1.86;100.00
24230;BME280;12362;50.004;8.006;2023-03-03T03:29:02;101042.47;;;-1.82;100.00
24230;BME280;12362;50.004;8.006;2023-03-03T03:31:28;101041.63;;;-1.82;100.00
24230;BME280;12362;50.004;8.006;2023-03-03T03:33:54;101037.38;;;-1.83;100.00
24230;BME280;12362;50.004;8.006;2023-03-03T03:36:24;101033.91;;;-1.88;100.00
24230;BME280;12362;50.004;8.006;2023-03-03T03:38:51;101040.63;;;-1.97;100.00
24230;BME280;12362;50.004;8.006;2023-03-03T03:41:17;101049.13;;;-1.95;100.00
24230;BME280;12362;50.004;8.006;2023-03-03T03:43:42;101045.66;;;-1.99;100.00
24230;BME280;12362;50.004;8.006;2023-03-03T03:46:08;101039.78;;;-1.96;100.00
24230;BME280;12362;50.004;8.006;2023-03-03T03:48:34;101048.94;;;-2.09;100.00
24230;BME280;12362;50.004;8.006;2023-03-03T03:51:02;101039.66;;;-2.05;100.00
24230;BME280;12362;50.004;8.006;2023-03-03T03:53:29;101046.59;;;-1.92;100.00
24230;BME280;12362;50.004;8.006;2023-03-03T03:55:55;101045.75;;;-1.93;100.00
24230;BME280;12362;50.004;8.006;2023-03-03T03:58:21;101043.94;;;-2.03;100.00
24230;BME280;12362;50.004;8.006;2023-03-03T04:00:53;101044.69;;;-2.11;100.00
24230;BME280;12362;50.004;8.006;2023-03-03T04:03:19;101047.13;;;-2.20;100.00
24230;BME280;12362;50.004;8.006;2023-03-03T04:05:46;101053.88;;;-2.22;100.00
24230;BME280;12362;50.004;8.006;2023-03-03T04:08:26;101054.06;;;-2.06;100.00
24230;BME280;12362;50.004;8.006;2023-03-03T04:10:52;101051.59;;;-2.00;100.00
24230;BME280;12362;50.004;8.006;2023-03-03T04:13:18;101054.03;;;-2.09;100.00
24230;BME280;12362;50.004;8.006;2023-03-03T04:15:44;101049.50;;;-2.32;100.00
24230;BME280;12362;50.004;8.006;2023-03-03T04:18:10;101062.13;;;-2.37;100.00
24230;BME280;12362;50.004;8.006;2023-03-03T04:20:36;101052.06;;;-2.32;100.00
24230;BME280;12362;50.004;8.006;2023-03-03T04:23:01;101048.63;;;-2.34;100.00
24230;BME280;12362;50.004;8.006;2023-03-03T04:25:28;101058.84;;;-2.31;100.00
24230;BME280;12362;50.004;8.006;2023-03-03T04:27:54;101052.09;;;-2.28;100.00
24230;BME280;12362;50.004;8.006;2023-03-03T04:30:21;101050.31;;;-2.35;100.00
24230;BME280;12362;50.004;8.006;2023-03-03T04:32:50;101056.88;;;-2.50;100.00
24230;BME280;12362;50.004;8.006;2023-03-03T04:35:20;101063.59;;;-2.54;100.00
24230;BME280;12362;50.004;8.006;2023-03-03T04:37:46;101064.69;;;-2.37;100.00
24230;BME280;12362;50.004;8.006;2023-03-03T04:40:12;101058.81;;;-2.33;100.00
24230;BME280;12362;50.004;8.006;2023-03-03T04:42:40;101065.59;;;-2.32;100.00
24230;BME280;12362;50.004;8.006;2023-03-03T04:45:08;101067.31;;;-2.32;100.00
24230;BME280;12362;50.004;8.006;2023-03-03T04:47:34;101067.22;;;-2.37;100.00
24230;BME280;12362;50.004;8.006;2023-03-03T04:50:00;101067.94;;;-2.47;100.00
24230;BME280;12362;50.004;8.006;2023-03-03T04:52:28;101068.69;;;-2.55;100.00
24230;BME280;12362;50.004;8.006;2023-03-03T04:54:54;101073.66;;;-2.60;100.00
24230;BME280;12362;50.004;8.006;2023-03-03T04:57:20;101065.22;;;-2.60;100.00
24230;BME280;12362;50.004;8.006;2023-03-03T04:59:46;101079.84;;;-2.44;100.00
24230;BME280;12362;50.004;8.006;2023-03-03T05:02:12;101073.13;;;-2.39;100.00
24230;BME280;12362;50.004;8.006;2023-03-03T05:04:39;101076.47;;;-2.43;100.00
24230;BME280;12362;50.004;8.006;2023-03-03T05:07:04;101076.47;;;-2.43;100.00
24230;BME280;12362;50.004;8.006;2023-03-03T05:09:30;101073.00;;;-2.48;100.00
24230;BME280;12362;50.004;8.006;2023-03-03T05:11:56;101079.81;;;-2.46;100.00
24230;BME280;12362;50.004;8.006;2023-03-03T05:14:21;101084.81;;;-2.50;100.00
24230;BME280;12362;50.004;8.006;2023-03-03T05:16:47;101078.03;;;-2.53;100.00
24230;BME280;12362;50.004;8.006;2023-03-03T05:19:13;101078.84;;;-2.54;100.00
24230;BME280;12362;50.004;8.006;2023-03-03T05:21:39;101066.97;;;-2.56;100.00
24230;BME280;12362;50.004;8.006;2023-03-03T05:24:10;101076.25;;;-2.58;100.00
24230;BME280;12362;50.004;8.006;2023-03-03T05:26:37;101071.94;;;-2.62;100.00
24230;BME280;12362;50.004;8.006;2023-03-03T05:29:04;101074.59;;;-2.55;100.00
24230;BME280;12362;50.004;8.006;2023-03-03T05:31:29;101068.81;;;-2.46;100.00
24230;BME280;12362;50.004;8.006;2023-03-03T05:33:55;101072.94;;;-2.53;100.00
24230;BME280;12362;50.004;8.006;2023-03-03T05:36:21;101078.97;;;-2.46;100.00
24230;BME280;12362;50.004;8.006;2023-03-03T05:38:46;101078.97;;;-2.46;100.00
24230;BME280;12362;50.004;8.006;2023-03-03T05:41:12;101081.63;;;-2.39;100.00
24230;BME280;12362;50.004;8.006;2023-03-03T05:43:37;101079.78;;;-2.47;100.00
24230;BME280;12362;50.004;8.006;2023-03-03T05:46:03;101083.22;;;-2.45;100.00
24230;BME280;12362;50.004;8.006;2023-03-03T05:48:32;101084.13;;;-2.42;100.00
24230;BME280;12362;50.004;8.006;2023-03-03T05:50:58;101082.44;;;-2.40;100.00
24230;BME280;12362;50.004;8.006;2023-03-03T05:53:27;101087.44;;;-2.46;100.00
24230;BME280;12362;50.004;8.006;2023-03-03T05:55:53;101082.16;;;-2.61;100.00
24230;BME280;12362;50.004;8.006;2023-03-03T05:58:19;101090.31;;;-2.81;100.00
24230;BME280;12362;50.004;8.006;2023-03-03T06:00:46;101097.13;;;-2.77;100.00
24230;BME280;12362;50.004;8.006;2023-03-03T06:03:13;101104.03;;;-2.70;100.00
24230;BME280;12362;50.004;8.006;2023-03-03T06:05:48;101110.69;;;-2.75;100.00
24230;BME280;12362;50.004;8.006;2023-03-03T06:08:13;101106.63;;;-2.67;100.00
24230;BME280;12362;50.004;8.006;2023-03-03T06:10:39;101103.38;;;-2.57;100.00
24230;BME280;12362;50.004;8.006;2023-03-03T06:13:09;101116.88;;;-2.60;100.00
24230;BME280;12362;50.004;8.006;2023-03-03T06:15:35;101112.16;;;-2.89;100.00
24230;BME280;12362;50.004;8.006;2023-03-03T06:18:03;101116.66;;;-2.74;100.00
24230;BME280;12362;50.004;8.006;2023-03-03T08:28:01;101231.94;;;3.31;100.00
24230;BME280;12362;50.004;8.006;2023-03-03T08:33:23;101229.91;;;3.72;100.00
24230;BME280;12362;50.004;8.006;2023-03-03T08:35:49;101226.28;;;3.97;100.00
24230;BME280;12362;50.004;8.006;2023-03-03T08:38:18;101216.59;;;4.26;100.00
24230;BME280;12362;50.004;8.006;2023-03-03T08:40:45;101222.28;;;4.51;100.00
24230;BME280;12362;50.004;8.006;2023-03-03T08:43:12;101217.63;;;4.82;100.00
24230;BME280;12362;50.004;8.006;2023-03-03T08:45:48;101224.25;;;5.01;100.00
24230;BME280;12362;50.004;8.006;2023-03-03T08:48:14;101226.25;;;5.39;100.00
24230;BME280;12362;50.004;8.006;2023-03-03T08:50:41;101224.66;;;5.33;100.00
24230;BME280;12362;50.004;8.006;2023-03-03T08:53:07;101223.56;;;5.48;100.00
24230;BME280;12362;50.004;8.006;2023-03-03T08:55:34;101210.03;;;5.90;100.00
24230;BME280;12362;50.004;8.006;2023-03-03T08:58:00;101198.81;;;5.93;100.00
24230;BME280;12362;50.004;8.006;2023-03-03T09:00:26;101206.28;;;6.09;100.00
24230;BME280;12362;50.004;8.006;2023-03-03T09:02:52;101207.66;;;6.25;100.00
24230;BME280;12362;50.004;8.006;2023-03-03T09:05:20;101207.25;;;6.46;100.00
24230;BME280;12362;50.004;8.006;2023-03-03T09:07:50;101215.34;;;6.72;100.00
24230;BME280;12362;50.004;8.006;2023-03-03T09:10:19;101211.41;;;6.54;100.00
24230;BME280;12362;50.004;8.006;2023-03-03T09:12:47;101219.47;;;6.38;100.00
24230;BME280;12362;50.004;8.006;2023-03-03T09:15:30;101217.41;;;6.97;100.00
24230;BME280;12362;50.004;8.006;2023-03-03T09:18:13;101220.59;;;6.24;100.00
24230;BME280;12362;50.004;8.006;2023-03-03T09:20:49;101219.47;;;6.80;100.00
24230;BME280;12362;50.004;8.006;2023-03-03T09:25:49;101215.03;;;7.26;100.00
24230;BME280;12362;50.004;8.006;2023-03-03T09:28:41;101213.19;;;7.69;100.00
24230;BME280;12362;50.004;8.006;2023-03-03T09:31:35;101217.50;;;7.32;100.00
24230;BME280;12362;50.004;8.006;2023-03-03T09:34:15;101211.19;;;7.43;100.00
24230;BME280;12362;50.004;8.006;2023-03-03T09:36:43;101216.50;;;7.00;100.00
24230;BME280;12362;50.004;8.006;2023-03-03T09:47:46;101215.44;;;8.14;100.00
24230;BME280;12362;50.004;8.006;2023-03-03T09:50:53;101238.16;;;7.32;100.00
24230;BME280;12362;50.004;8.006;2023-03-03T09:56:29;101230.28;;;7.74;100.00
24230;BME280;12362;50.004;8.006;2023-03-03T10:10:17;101228.38;;;9.63;100.00
24230;BME280;12362;50.004;8.006;2023-03-03T10:19:14;101222.66;;;9.52;98.79
24230;BME280;12362;50.004;8.006;2023-03-03T10:22:27;101226.97;;;9.53;100.00
24230;BME280;12362;50.004;8.006;2023-03-03T10:36:42;101226.84;;;10.35;95.05
24230;BME280;12362;50.004;8.006;2023-03-03T10:39:29;101228.13;;;9.96;91.98
24230;BME280;12362;50.004;8.006;2023-03-03T10:42:02;101242.06;;;9.66;95.41
24230;BME280;12362;50.004;8.006;2023-03-03T10:49:50;101231.03;;;9.87;91.20
24230;BME280;12362;50.004;8.006;2023-03-03T10:55:20;101217.50;;;10.77;85.66
24230;BME280;12362;50.004;8.006;2023-03-03T11:06:42;101229.63;;;10.04;91.33
24230;BME280;12362;50.004;8.006;2023-03-03T11:14:42;101233.94;;;11.44;73.63
24230;BME280;12362;50.004;8.006;2023-03-03T11:20:05;101230.66;;;11.18;76.65
24230;BME280;12362;50.004;8.006;2023-03-03T11:22:56;101232.78;;;11.53;71.56
24230;BME280;12362;50.004;8.006;2023-03-03T11:25:48;101232.31;;;11.42;71.82
24230;BME280;12362;50.004;8.006;2023-03-03T11:36:35;101217.13;;;11.10;73.95
24230;BME280;12362;50.004;8.006;2023-03-03T11:39:09;101224.44;;;10.53;78.02
24230;BME280;12362;50.004;8.006;2023-03-03T11:45:04;101214.53;;;11.54;78.47
24230;BME280;12362;50.004;8.006;2023-03-03T11:47:51;101217.00;;;11.78;67.02
24230;BME280;12362;50.004;8.006;2023-03-03T11:54:09;101201.16;;;11.63;68.03
24230;BME280;12362;50.004;8.006;2023-03-03T11:56:47;101198.34;;;11.46;68.15
24230;BME280;12362;50.004;8.006;2023-03-03T12:02:34;101191.25;;;11.50;69.50
24230;BME280;12362;50.004;8.006;2023-03-03T12:11:20;101167.81;;;12.52;62.21
24230;BME280;12362;50.004;8.006;2023-03-03T12:25:18;101134.63;;;14.15;54.00
24230;BME280;12362;50.004;8.006;2023-03-03T12:27:55;101133.34;;;13.02;54.43
24230;BME280;12362;50.004;8.006;2023-03-03T12:41:26;101134.00;;;12.87;56.46
24230;BME280;12362;50.004;8.006;2023-03-03T12:50:04;101120.22;;;12.29;56.12
24230;BME280;12362;50.004;8.006;2023-03-03T13:00:53;101105.16;;;12.92;55.89
24230;BME280;12362;50.004;8.006;2023-03-03T13:12:22;101085.22;;;13.26;52.80
24230;BME280;12362;50.004;8.006;2023-03-03T13:15:15;101088.69;;;13.44;52.62
24230;BME280;12362;50.004;8.006;2023-03-03T13:18:00;101094.66;;;13.12;52.09
24230;BME280;12362;50.004;8.006;2023-03-03T13:20:49;101090.34;;;13.11;52.81
24230;BME280;12362;50.004;8.006;2023-03-03T13:26:02;101076.75;;;14.06;50.20
24230;BME280;12362;50.004;8.006;2023-03-03T13:31:21;101073.03;;;13.77;51.01
24230;BME280;12362;50.004;8.006;2023-03-03T13:33:53;101067.63;;;14.47;49.49
24230;BME280;12362;50.004;8.006;2023-03-03T13:36:22;101073.25;;;14.39;49.64
24230;BME280;12362;50.004;8.006;2023-03-03T13:38:52;101071.88;;;14.00;49.48
24230;BME280;12362;50.004;8.006;2023-03-03T13:41:48;101074.34;;;13.86;50.86
24230;BME280;12362;50.004;8.006;2023-03-03T13:44:23;101071.72;;;13.18;52.16
24230;BME280;12362;50.004;8.006;2023-03-03T13:47:05;101068.97;;;13.38;51.93
24230;BME280;12362;50.004;8.006;2023-03-03T13:55:52;101052.56;;;13.53;51.59
24230;BME280;12362;50.004;8.006;2023-03-03T14:04:13;101048.28;;;14.01;51.38
24230;BME280;12362;50.004;8.006;2023-03-03T14:06:52;101047.13;;;14.39;52.01
24230;BME280;12362;50.004;8.006;2023-03-03T14:09:42;101036.69;;;14.70;48.48
24230;BME280;12362;50.004;8.006;2023-03-03T14:49:34;101025.97;;;14.44;49.18
24230;BME280;12362;50.004;8.006;2023-03-03T14:52:32;101028.75;;;14.41;49.29
24230;BME280;12362;50.004;8.006;2023-03-03T14:55:02;101029.25;;;14.93;49.94
24230;BME280;12362;50.004;8.006;2023-03-03T14:57:54;101029.50;;;14.43;44.84
24230;BME280;12362;50.004;8.006;2023-03-03T15:00:36;101029.31;;;13.32;48.30
24230;BME280;12362;50.004;8.006;2023-03-03T15:03:26;101029.78;;;13.23;47.06
24230;BME280;12362;50.004;8.006;2023-03-03T15:05:57;101037.94;;;12.80;48.69
24230;BME280;12362;50.004;8.006;2023-03-03T15:08:39;101040.28;;;12.68;50.24
24230;BME280;12362;50.004;8.006;2023-03-03T15:11:57;101033.81;;;12.58;48.52
24230;BME280;12362;50.004;8.006;2023-03-03T15:14:41;101032.47;;;13.55;46.38
24230;BME280;12362;50.004;8.006;2023-03-03T15:17:32;101033.22;;;12.88;47.37
24230;BME280;12362;50.004;8.006;2023-03-03T15:28:51;101038.25;;;12.56;46.78
24230;BME280;12362;50.004;8.006;2023-03-03T15:34:39;101029.75;;;12.87;46.20
24230;BME280;12362;50.004;8.006;2023-03-03T15:37:31;101029.09;;;12.66;46.96
24230;BME280;12362;50.004;8.006;2023-03-03T15:40:34;101024.41;;;13.60;45.51
24230;BME280;12362;50.004;8.006;2023-03-03T15:43:31;101028.31;;;12.45;46.99
24230;BME280;12362;50.004;8.006;2023-03-03T15:48:45;101039.63;;;11.28;49.91
24230;BME280;12362;50.004;8.006;2023-03-03T15:54:35;101043.00;;;10.88;52.15
24230;BME280;12362;50.004;8.006;2023-03-03T16:02:49;101055.09;;;9.99;58.03
24230;BME280;12362;50.004;8.006;2023-03-03T16:05:27;101045.34;;;9.57;63.14
24230;BME280;12362;50.004;8.006;2023-03-03T16:19:15;101070.84;;;8.66;87.56
24230;BME280;12362;50.004;8.006;2023-03-03T16:22:10;101064.16;;;8.86;88.36
24230;BME280;12362;50.004;8.006;2023-03-03T16:30:55;101073.03;;;9.05;90.09
24230;BME280;12362;50.004;8.006;2023-03-03T16:33:49;101080.16;;;8.99;89.64
24230;BME280;12362;50.004;8.006;2023-03-03T16:39:11;101082.22;;;8.88;94.40
24230;BME280;12362;50.004;8.006;2023-03-03T16:50:15;101095.72;;;8.41;100.00
24230;BME280;12362;50.004;8.006;2023-03-03T16:55:46;101100.63;;;8.21;100.00
24230;BME280;12362;50.004;8.006;2023-03-03T17:04:38;101113.16;;;7.72;100.00
24230;BME280;12362;50.004;8.006;2023-03-03T17:07:09;101119.19;;;7.71;100.00
24230;BME280;12362;50.004;8.006;2023-03-03T17:10:01;101123.75;;;7.62;100.00
24230;BME280;12362;50.004;8.006;2023-03-03T17:13:15;101122.28;;;7.52;100.00
24230;BME280;12362;50.004;8.006;2023-03-03T17:31:12;101166.78;;;6.90;100.00
24230;BME280;12362;50.004;8.006;2023-03-03T17:43:53;101186.56;;;6.49;100.00
24230;BME280;12362;50.004;8.006;2023-03-03T17:49:09;101202.19;;;6.41;100.00
24230;BME280;12362;50.004;8.006;2023-03-03T18:09:34;101229.25;;;5.68;100.00
24230;BME280;12362;50.004;8.006;2023-03-03T18:12:46;101230.97;;;5.69;100.00
24230;BME280;12362;50.004;8.006;2023-03-03T18:20:39;101239.06;;;5.45;100.00
24230;BME280;12362;50.004;8.006;2023-03-03T18:27:46;101243.50;;;5.35;100.00
24230;BME280;12362;50.004;8.006;2023-03-03T19:09:00;101284.81;;;4.56;100.00
24230;BME280;12362;50.004;8.006;2023-03-03T19:20:14;101291.06;;;4.30;100.00
24230;BME280;12362;50.004;8.006;2023-03-03T19:23:06;101290.09;;;4.39;100.00
24230;BME280;12362;50.004;8.006;2023-03-03T19:25:47;101294.38;;;4.44;100.00
24230;BME280;12362;50.004;8.006;2023-03-03T19:31:31;101293.59;;;4.35;100.00
24230;BME280;12362;50.004;8.006;2023-03-03T19:36:52;101307.47;;;4.14;100.00
24230;BME280;12362;50.004;8.006;2023-03-03T19:39:46;101305.75;;;4.15;100.00
24230;BME280;12362;50.004;8.006;2023-03-03T19:45:15;101304.09;;;4.11;100.00
24230;BME280;12362;50.004;8.006;2023-03-03T19:51:24;101303.28;;;4.03;100.00
24230;BME280;12362;50.004;8.006;2023-03-03T20:00:26;101311.19;;;3.80;100.00
24230;BME280;12362;50.004;8.006;2023-03-03T20:08:13;101321.78;;;3.18;100.00
24230;BME280;12362;50.004;8.006;2023-03-03T20:10:53;101332.13;;;3.04;100.00
24230;BME280;12362;50.004;8.006;2023-03-03T20:21:31;101345.06;;;2.58;100.00
24230;BME280;12362;50.004;8.006;2023-03-03T20:58:31;101359.59;;;2.65;100.00
24230;BME280;12362;50.004;8.006;2023-03-03T21:01:08;101364.72;;;2.65;100.00
24230;BME280;12362;50.004;8.006;2023-03-03T21:03:48;101355.31;;;2.52;100.00
24230;BME280;12362;50.004;8.006;2023-03-03T21:06:36;101359.59;;;2.43;100.00
24230;BME280;12362;50.004;8.006;2023-03-03T21:12:03;101356.19;;;2.26;100.00
24230;BME280;12362;50.004;8.006;2023-03-03T21:14:32;101360.44;;;2.19;100.00
24230;BME280;12362;50.004;8.006;2023-03-03T21:16:59;101366.44;;;2.18;100.00
24230;BME280;12362;50.004;8.006;2023-03-03T21:19:29;101368.16;;;2.12;100.00
24230;BME280;12362;50.004;8.006;2023-03-03T21:21:56;101374.09;;;2.08;100.00
24230;BME280;12362;50.004;8.006;2023-03-03T21:24:50;101368.13;;;2.18;100.00
24230;BME280;12362;50.004;8.006;2023-03-03T21:30:05;101370.69;;;2.34;100.00
24230;BME280;12362;50.004;8.006;2023-03-03T21:32:45;101368.97;;;2.53;100.00
24230;BME280;12362;50.004;8.006;2023-03-03T21:37:44;101373.25;;;2.55;100.00
24230;BME280;12362;50.004;8.006;2023-03-03T21:40:27;101376.66;;;2.33;100.00
24230;BME280;12362;50.004;8.006;2023-03-03T21:42:56;101378.38;;;2.22;100.00
24230;BME280;12362;50.004;8.006;2023-03-03T21:45:23;101377.53;;;2.16;100.00
24230;BME280;12362;50.004;8.006;2023-03-03T21:47:50;101384.31;;;1.84;100.00
24230;BME280;12362;50.004;8.006;2023-03-03T21:50:17;101384.28;;;1.74;100.00
24230;BME280;12362;50.004;8.006;2023-03-03T21:52:46;101389.44;;;1.82;100.00
24230;BME280;12362;50.004;8.006;2023-03-03T21:55:12;101389.47;;;2.00;100.00
24230;BME280;12362;50.004;8.006;2023-03-03T21:57:38;101387.78;;;2.01;100.00
24230;BME280;12362;50.004;8.006;2023-03-03T22:00:06;101388.59;;;1.94;100.00
24230;BME280;12362;50.004;8.006;2023-03-03T22:02:35;101391.19;;;2.04;100.00
24230;BME280;12362;50.004;8.006;2023-03-03T22:05:01;101386.94;;;2.18;100.00
24230;BME280;12362;50.004;8.006;2023-03-03T22:07:29;101391.19;;;2.06;100.00
24230;BME280;12362;50.004;8.006;2023-03-03T22:09:54;101391.16;;;1.95;100.00
24230;BME280;12362;50.004;8.006;2023-03-03T22:12:20;101392.91;;;2.01;100.00
24230;BME280;12362;50.004;8.006;2023-03-03T22:14:46;101389.47;;;1.96;100.00
24230;BME280;12362;50.004;8.006;2023-03-03T22:17:11;101390.28;;;1.78;100.00
24230;BME280;12362;50.004;8.006;2023-03-03T22:19:37;101385.97;;;1.61;100.00
24230;BME280;12362;50.004;8.006;2023-03-03T22:22:03;101385.94;;;1.54;100.00
24230;BME280;12362;50.004;8.006;2023-03-03T22:24:29;101397.81;;;1.34;100.00
24230;BME280;12362;50.004;8.006;2023-03-03T22:26:55;101399.50;;;1.33;100.00
24230;BME280;12362;50.004;8.006;2023-03-03T22:29:21;101396.09;;;1.39;100.00
24230;BME280;12362;50.004;8.006;2023-03-03T22:31:48;101397.81;;;1.40;100.00
24230;BME280;12362;50.004;8.006;2023-03-03T22:34:13;101390.97;;;1.31;100.00
24230;BME280;12362;50.004;8.006;2023-03-03T22:36:39;101403.66;;;1.15;100.00
24230;BME280;12362;50.004;8.006;2023-03-03T22:39:05;101399.28;;;0.93;100.00
24230;BME280;12362;50.004;8.006;2023-03-03T22:41:30;101416.25;;;0.81;100.00
24230;BME280;12362;50.004;8.006;2023-03-03T22:43:56;101411.91;;;0.68;100.00
24230;BME280;12362;50.004;8.006;2023-03-03T22:46:22;101417.91;;;0.71;100.00